sensor_id;sensor_type;location;lat;lon;timestamp;pressure;altitude;pressure_sealevel;temperature;humidity
35758;BME280;21879;50.110;18.900;2023-01-30T00:09:41;98777.85;;;-1.49;61.16
35758;BME280;21879;50.110;18.900;2023-01-30T00:20:10;98761.15;;;-1.57;61.25
35758;BME280;21879;50.110;18.900;2023-01-30T00:30:40;98734.27;;;-1.68;61.49
35758;BME280;21879;50.110;18.900;2023-01-30T00:41:08;98707.05;;;-1.89;61.77
35758;BME280;21879;50.110;18.900;2023-01-30T00:51:38;98693.11;;;-2.01;62.16
35758;BME280;21879;50.110;18.900;2023-01-30T01:02:05;98680.95;;;-2.15;62.73
35758;BME280;21879;50.110;18.900;2023-01-30T01:12:33;98661.85;;;-2.24;63.01
35758;BME280;21879;50.110;18.900;2023-01-30T01:23:01;98643.54;;;-2.40;63.30
35758;BME280;21879;50.110;18.900;2023-01-30T01:33:28;98627.63;;;-2.46;63.88
35758;BME280;21879;50.110;18.900;2023-01-30T01:44:04;98602.95;;;-2.49;64.57
35758;BME280;21879;50.110;18.900;2023-01-30T01:54:35;98587.52;;;-2.52;65.00
35758;BME280;21879;50.110;18.900;2023-01-30T02:05:07;98538.48;;;-2.52;65.50
35758;BME280;21879;50.110;18.900;2023-01-30T02:15:36;98500.33;;;-2.57;65.75
35758;BME280;21879;50.110;18.900;2023-01-30T02:37:19;98483.41;;;-2.50;66.25
35758;BME280;21879;50.110;18.900;2023-01-30T02:47:55;98463.73;;;-2.48;66.15
35758;BME280;21879;50.110;18.900;2023-01-30T02:58:24;98451.05;;;-2.42;66.27
35758;BME280;21879;50.110;18.900;2023-01-30T03:09:00;98435.55;;;-2.37;66.25
35758;BME280;21879;50.110;18.900;2023-01-30T03:19:30;98441.20;;;-2.27;66.12
35758;BME280;21879;50.110;18.900;2023-01-30T03:29:58;98416.47;;;-2.23;65.89
35758;BME280;21879;50.110;18.900;2023-01-30T03:40:25;98418.11;;;-2.20;65.78
35758;BME280;21879;50.110;18.900;2023-01-30T03:50:53;98404.00;;;-2.19;65.50
35758;BME280;21879;50.110;18.900;2023-01-30T04:01:21;98389.52;;;-2.20;65.47
35758;BME280;21879;50.110;18.900;2023-01-30T04:11:49;98376.89;;;-2.16;65.49
35758;BME280;21879;50.110;18.900;2023-01-30T04:22:16;98352.63;;;-2.13;65.27
35758;BME280;21879;50.110;18.900;2023-01-30T04:32:44;98336.09;;;-2.13;65.43
35758;BME280;21879;50.110;18.900;2023-01-30T04:43:11;98326.06;;;-2.12;65.19
35758;BME280;21879;50.110;18.900;2023-01-30T04:53:39;98320.88;;;-2.10;65.25
35758;BME280;21879;50.110;18.900;2023-01-30T05:04:07;98309.35;;;-2.08;65.32
35758;BME280;21879;50.110;18.900;2023-01-30T05:14:35;98289.54;;;-1.99;65.12
35758;BME280;21879;50.110;18.900;2023-01-30T05:25:08;98277.17;;;-1.97;64.89
35758;BME280;21879;50.110;18.900;2023-01-30T05:35:35;98264.48;;;-1.89;64.74
35758;BME280;21879;50.110;18.900;2023-01-30T05:46:04;98241.98;;;-1.85;64.53
35758;BME280;21879;50.110;18.900;2023-01-30T05:56:32;98236.70;;;-1.79;64.18
35758;BME280;21879;50.110;18.900;2023-01-30T06:07:00;98199.03;;;-1.73;63.98
35758;BME280;21879;50.110;18.900;2023-01-30T06:17:28;98175.31;;;-1.75;64.00
35758;BME280;21879;50.110;18.900;2023-01-30T06:27:56;98174.52;;;-1.73;63.90
35758;BME280;21879;50.110;18.900;2023-01-30T06:38:24;98173.19;;;-1.72;63.73
35758;BME280;21879;50.110;18.900;2023-01-30T06:48:52;98148.79;;;-1.72;63.69
35758;BME280;21879;50.110;18.900;2023-01-30T06:59:19;98152.27;;;-1.64;63.62
35758;BME280;21879;50.110;18.900;2023-01-30T07:09:47;98152.98;;;-1.58;63.54
35758;BME280;21879;50.110;18.900;2023-01-30T07:20:32;98151.09;;;-1.58;63.23
35758;BME280;21879;50.110;18.900;2023-01-30T07:31:01;98114.50;;;-1.56;63.26
35758;BME280;21879;50.110;18.900;2023-01-30T07:41:30;98114.35;;;-1.49;63.27
35758;BME280;21879;50.110;18.900;2023-01-30T07:51:57;98109.51;;;-1.46;63.18
35758;BME280;21879;50.110;18.900;2023-01-30T08:02:26;98097.76;;;-1.46;63.04
35758;BME280;21879;50.110;18.900;2023-01-30T08:12:54;98103.42;;;-1.44;63.19
35758;BME280;21879;50.110;18.900;2023-01-30T08:23:23;98093.06;;;-1.36;63.30
35758;BME280;21879;50.110;18.900;2023-01-30T08:33:52;98046.29;;;-1.25;63.25
35758;BME280;21879;50.110;18.900;2023-01-30T08:44:21;98026.77;;;-1.08;63.06
35758;BME280;21879;50.110;18.900;2023-01-30T08:54:48;98035.02;;;-0.92;62.97
35758;BME280;21879;50.110;18.900;2023-01-30T09:05:17;98045.67;;;-0.82;62.84
35758;BME280;21879;50.110;18.900;2023-01-30T09:15:45;98029.76;;;-0.69;62.73
35758;BME280;21879;50.110;18.900;2023-01-30T09:26:12;98014.35;;;-0.64;62.75
35758;BME280;21879;50.110;18.900;2023-01-30T09:36:40;98000.77;;;-0.61;62.47
35758;BME280;21879;50.110;18.900;2023-01-30T09:47:11;97975.65;;;-0.61;62.69
35758;BME280;21879;50.110;18.900;2023-01-30T09:57:39;97960.60;;;-0.63;62.85
35758;BME280;21879;50.110;18.900;2023-01-30T10:08:19;97938.39;;;-0.56;63.09
35758;BME280;21879;50.110;18.900;2023-01-30T10:30:03;97921.61;;;-0.51;64.27
35758;BME280;21879;50.110;18.900;2023-01-30T10:40:37;97906.21;;;-0.52;65.18
35758;BME280;21879;50.110;18.900;2023-01-30T10:51:17;97880.78;;;-0.59;66.09
35758;BME280;21879;50.110;18.900;2023-01-30T11:01:54;97864.48;;;-0.63;66.49
35758;BME280;21879;50.110;18.900;2023-01-30T11:12:24;97856.37;;;-0.60;66.55
35758;BME280;21879;50.110;18.900;2023-01-30T11:23:05;97839.81;;;-0.51;66.95
35758;BME280;21879;50.110;18.900;2023-01-30T11:33:35;97820.65;;;-0.43;67.27
35758;BME280;21879;50.110;18.900;2023-01-30T11:44:04;97788.90;;;-0.34;67.50
35758;BME280;21879;50.110;18.900;2023-01-30T11:54:34;97768.61;;;-0.22;67.47
35758;BME280;21879;50.110;18.900;2023-01-30T12:05:06;97751.04;;;-0.11;67.28
35758;BME280;21879;50.110;18.900;2023-01-30T12:15:47;97737.94;;;0.02;67.56
35758;BME280;21879;50.110;18.900;2023-01-30T12:26:20;97727.12;;;0.09;67.27
35758;BME280;21879;50.110;18.900;2023-01-30T12:37:00;97721.48;;;0.20;67.11
35758;BME280;21879;50.110;18.900;2023-01-30T12:47:49;97715.00;;;0.32;66.90
35758;BME280;21879;50.110;18.900;2023-01-30T12:58:22;97701.48;;;0.33;67.53
35758;BME280;21879;50.110;18.900;2023-01-30T13:09:00;97703.43;;;0.25;68.35
35758;BME280;21879;50.110;18.900;2023-01-30T13:19:36;97688.23;;;0.26;69.08
35758;BME280;21879;50.110;18.900;2023-01-30T13:30:12;97691.35;;;0.40;68.94
35758;BME280;21879;50.110;18.900;2023-01-30T13:40:43;97689.51;;;0.56;68.40
35758;BME280;21879;50.110;18.900;2023-01-30T13:51:24;97682.26;;;0.63;68.35
35758;BME280;21879;50.110;18.900;2023-01-30T14:02:21;97673.44;;;0.70;68.18
35758;BME280;21879;50.110;18.900;2023-01-30T14:12:50;97657.54;;;0.70;68.30
35758;BME280;21879;50.110;18.900;2023-01-30T14:23:23;97670.61;;;0.76;68.28
35758;BME280;21879;50.110;18.900;2023-01-30T14:33:53;97671.87;;;0.81;68.27
35758;BME280;21879;50.110;18.900;2023-01-30T14:55:23;97675.86;;;0.85;68.54
35758;BME280;21879;50.110;18.900;2023-01-30T15:05:59;97672.11;;;0.87;68.55
35758;BME280;21879;50.110;18.900;2023-01-30T15:16:49;97676.95;;;0.90;69.22
35758;BME280;21879;50.110;18.900;2023-01-30T15:27:25;97693.15;;;0.99;69.13
35758;BME280;21879;50.110;18.900;2023-01-30T15:37:58;97708.71;;;1.12;69.10
35758;BME280;21879;50.110;18.900;2023-01-30T15:48:43;97722.47;;;1.17;69.33
35758;BME280;21879;50.110;18.900;2023-01-30T15:59:24;97725.42;;;1.21;69.65
35758;BME280;21879;50.110;18.900;2023-01-30T16:09:59;97724.66;;;1.30;69.76
35758;BME280;21879;50.110;18.900;2023-01-30T16:20:43;97740.88;;;1.40;70.24
35758;BME280;21879;50.110;18.900;2023-01-30T16:31:36;97744.64;;;1.55;70.06
35758;BME280;21879;50.110;18.900;2023-01-30T16:42:21;97759.67;;;1.51;69.53
35758;BME280;21879;50.110;18.900;2023-01-30T16:52:52;97761.39;;;1.51;69.54
35758;BME280;21879;50.110;18.900;2023-01-30T17:03:24;97753.83;;;1.50;69.67
35758;BME280;21879;50.110;18.900;2023-01-30T17:14:15;97751.10;;;1.50;69.90
35758;BME280;21879;50.110;18.900;2023-01-30T17:24:42;97751.48;;;1.53;69.75
35758;BME280;21879;50.110;18.900;2023-01-30T17:35:11;97748.58;;;1.54;69.80
35758;BME280;21879;50.110;18.900;2023-01-30T17:45:40;97758.88;;;1.55;70.50
35758;BME280;21879;50.110;18.900;2023-01-30T17:56:16;97752.03;;;1.57;70.77
35758;BME280;21879;50.110;18.900;2023-01-30T18:06:48;97739.83;;;1.54;71.39
35758;BME280;21879;50.110;18.900;2023-01-30T18:17:17;97743.06;;;1.52;71.36
35758;BME280;21879;50.110;18.900;2023-01-30T18:27:45;97728.02;;;1.54;71.88
35758;BME280;21879;50.110;18.900;2023-01-30T18:38:13;97723.92;;;1.56;71.35
35758;BME280;21879;50.110;18.900;2023-01-30T18:48:41;97726.24;;;1.66;71.36
35758;BME280;21879;50.110;18.900;2023-01-30T18:59:10;97718.31;;;1.78;71.16
35758;BME280;21879;50.110;18.900;2023-01-30T19:09:37;97720.48;;;1.91;71.14
35758;BME280;21879;50.110;18.900;2023-01-30T19:20:08;97717.59;;;1.93;70.72
35758;BME280;21879;50.110;18.900;2023-01-30T19:30:37;97723.55;;;1.89;70.78
35758;BME280;21879;50.110;18.900;2023-01-30T19:41:08;97731.13;;;1.93;71.15
35758;BME280;21879;50.110;18.900;2023-01-30T19:51:37;97751.36;;;1.92;71.07
35758;BME280;21879;50.110;18.900;2023-01-30T20:02:07;97761.50;;;1.96;71.19
35758;BME280;21879;50.110;18.900;2023-01-30T20:12:36;97772.30;;;1.96;71.26
35758;BME280;21879;50.110;18.900;2023-01-30T20:23:03;97780.23;;;2.00;71.41
35758;BME280;21879;50.110;18.900;2023-01-30T20:33:32;97786.63;;;2.05;71.73
35758;BME280;21879;50.110;18.900;2023-01-30T20:44:04;97794.85;;;2.06;71.55
35758;BME280;21879;50.110;18.900;2023-01-30T20:54:32;97800.51;;;2.04;72.08
35758;BME280;21879;50.110;18.900;2023-01-30T21:05:01;97798.64;;;2.06;72.04
35758;BME280;21879;50.110;18.900;2023-01-30T21:15:30;97810.98;;;2.06;72.76
35758;BME280;21879;50.110;18.900;2023-01-30T21:26:03;97818.89;;;2.08;72.78
35758;BME280;21879;50.110;18.900;2023-01-30T21:36:31;97822.56;;;2.16;72.43
35758;BME280;21879;50.110;18.900;2023-01-30T21:47:00;97845.67;;;2.28;72.15
35758;BME280;21879;50.110;18.900;2023-01-30T21:57:27;97861.48;;;2.32;71.71
35758;BME280;21879;50.110;18.900;2023-01-30T22:07:55;97881.08;;;2.35;71.42
35758;BME280;21879;50.110;18.900;2023-01-30T22:18:23;97881.66;;;2.42;71.22
35758;BME280;21879;50.110;18.900;2023-01-30T22:28:54;97897.28;;;2.43;70.99
35758;BME280;21879;50.110;18.900;2023-01-30T22:39:22;97897.90;;;2.38;71.20
35758;BME280;21879;50.110;18.900;2023-01-30T22:49:50;97913.96;;;2.30;71.53
35758;BME280;21879;50.110;18.900;2023-01-30T23:00:19;97941.91;;;2.14;72.31
35758;BME280;21879;50.110;18.900;2023-01-30T23:10:46;97948.65;;;2.04;72.53
35758;BME280;21879;50.110;18.900;2023-01-30T23:21:15;97951.48;;;1.97;73.04
35758;BME280;21879;50.110;18.900;2023-01-30T23:31:45;97957.98;;;1.83;73.54
35758;BME280;21879;50.110;18.900;2023-01-30T23:42:12;97970.08;;;1.77;73.94
35758;BME280;21879;50.110;18.900;2023-01-30T23:52:43;97964.35;;;1.72;74.12
